createdAt,value
2017-11-01T00:01:59.460Z,7.93
2017-11-01T00:04:26.905Z,5.23
2017-11-01T00:06:54.385Z,5.20
2017-11-01T00:09:21.817Z,5.60
2017-11-01T00:11:49.271Z,5.90
2017-11-01T00:14:17.156Z,17.30
2017-11-01T00:16:44.624Z,6.37
2017-11-01T00:19:12.083Z,6.00
2017-11-01T00:21:39.623Z,5.80
2017-11-01T00:24:07.174Z,9.87
2017-11-01T00:26:34.656Z,7.00
2017-11-01T00:29:02.091Z,8.17
2017-11-01T00:31:29.655Z,8.27
2017-11-01T00:33:57.101Z,7.50
2017-11-01T00:36:24.566Z,9.27
2017-11-01T00:38:52.023Z,5.70
2017-11-01T00:41:19.504Z,5.47
2017-11-01T00:43:46.953Z,5.70
2017-11-01T00:46:14.410Z,6.63
2017-11-01T00:48:41.938Z,7.00
2017-11-01T00:51:09.376Z,11.73
2017-11-01T00:53:36.835Z,5.10
2017-11-01T00:56:04.315Z,5.33
2017-11-01T00:58:31.776Z,8.13
2017-11-01T01:00:59.247Z,4.67
2017-11-01T01:03:26.716Z,5.83
2017-11-01T01:05:54.152Z,7.27
2017-11-01T01:08:21.617Z,5.00
2017-11-01T01:10:49.065Z,5.30
2017-11-01T01:13:16.501Z,5.53
2017-11-01T01:15:44.070Z,3.90
2017-11-01T01:18:11.513Z,7.53
2017-11-01T01:20:38.969Z,12.77
2017-11-01T01:23:06.444Z,4.80
2017-11-01T01:25:40.575Z,4.53
2017-11-01T01:28:08.029Z,5.20
2017-11-01T01:30:35.582Z,4.73
2017-11-01T01:33:03.058Z,6.77
2017-11-01T01:35:30.593Z,5.00
2017-11-01T01:37:58.049Z,5.37
2017-11-01T01:40:25.545Z,7.20
2017-11-01T01:42:53.066Z,5.97
2017-11-01T01:45:20.530Z,10.00
2017-11-01T01:47:48.018Z,11.33
2017-11-01T01:50:15.474Z,6.50
2017-11-01T01:52:43.001Z,6.60
2017-11-01T01:55:10.471Z,7.57
2017-11-01T01:57:38.016Z,3.90
2017-11-01T02:00:05.477Z,11.03
2017-11-01T02:02:32.944Z,5.03
2017-11-01T02:05:00.406Z,9.07
2017-11-01T02:07:27.941Z,7.50
2017-11-01T02:09:55.410Z,5.30
2017-11-01T02:12:22.883Z,7.23
2017-11-01T02:14:50.356Z,7.27
2017-11-01T02:17:17.840Z,6.87
2017-11-01T02:19:45.325Z,9.60
2017-11-01T02:22:12.773Z,10.00
2017-11-01T02:24:40.256Z,12.20
2017-11-01T02:27:07.720Z,6.40
2017-11-01T02:29:35.201Z,5.80
2017-11-01T02:32:02.666Z,7.43
2017-11-01T02:34:30.139Z,10.23
2017-11-01T02:36:57.597Z,7.17
2017-11-01T02:39:25.182Z,9.70
2017-11-01T02:41:52.642Z,5.00
2017-11-01T02:44:20.160Z,12.90
2017-11-01T02:46:47.680Z,7.27
2017-11-01T02:49:15.176Z,7.30
2017-11-01T02:51:42.640Z,5.43
2017-11-01T02:54:10.129Z,8.77
2017-11-01T02:56:37.614Z,11.93
2017-11-01T02:59:05.070Z,9.93
2017-11-01T03:01:32.541Z,9.03
2017-11-01T03:04:00.054Z,5.33
2017-11-01T03:06:27.541Z,7.97
2017-11-01T03:08:55.071Z,6.90
2017-11-01T03:11:22.553Z,16.67
2017-11-01T03:13:50.090Z,12.13
2017-11-01T03:16:17.564Z,9.07
2017-11-01T03:18:45.012Z,13.43
2017-11-01T03:21:12.502Z,6.57
2017-11-01T03:23:39.961Z,19.40
2017-11-01T03:26:07.441Z,8.30
2017-11-01T03:28:34.907Z,7.43
2017-11-01T03:31:02.397Z,6.00
2017-11-01T03:33:29.942Z,10.77
2017-11-01T03:35:57.401Z,10.37
2017-11-01T03:38:24.954Z,6.40
2017-11-01T03:40:52.418Z,8.40
2017-11-01T03:43:19.914Z,7.03
2017-11-01T03:45:47.361Z,7.73
2017-11-01T03:48:14.827Z,11.03
2017-11-01T03:50:42.285Z,6.23
2017-11-01T03:53:09.747Z,7.60
2017-11-01T03:55:37.202Z,9.43
2017-11-01T03:58:04.725Z,5.73
2017-11-01T04:00:32.176Z,10.47
2017-11-01T04:02:59.654Z,5.87
2017-11-01T04:05:27.110Z,5.10
2017-11-01T04:07:54.586Z,9.10
2017-11-01T04:10:22.110Z,7.93
2017-11-01T04:12:49.587Z,5.53
2017-11-01T04:15:17.103Z,16.43
2017-11-01T04:17:45.370Z,11.10
2017-11-01T04:20:13.662Z,9.10
2017-11-01T04:22:41.149Z,14.13
2017-11-01T04:25:08.609Z,8.87
2017-11-01T04:27:36.095Z,13.30
2017-11-01T04:30:03.557Z,10.30
2017-11-01T04:32:31.067Z,8.40
2017-11-01T04:34:58.653Z,19.77
2017-11-01T04:37:26.113Z,8.63
2017-11-01T04:39:53.628Z,15.53
2017-11-01T04:42:21.090Z,11.70
2017-11-01T04:44:48.633Z,9.20
2017-11-01T04:47:16.088Z,8.47
2017-11-01T04:49:43.657Z,10.83
2017-11-01T04:52:11.113Z,7.50
2017-11-01T04:54:38.606Z,21.57
2017-11-01T04:57:06.133Z,10.77
2017-11-01T04:59:33.617Z,14.57
2017-11-01T05:02:01.862Z,7.60
2017-11-01T05:04:29.423Z,10.20
2017-11-01T05:06:56.977Z,10.07
2017-11-01T05:09:26.201Z,10.50
2017-11-01T05:11:53.659Z,11.07
2017-11-01T05:14:21.130Z,7.17
2017-11-01T05:16:48.602Z,7.80
2017-11-01T05:19:17.026Z,7.47
2017-11-01T05:21:44.573Z,10.83
2017-11-01T05:24:12.056Z,6.73
2017-11-01T05:26:39.522Z,7.63
2017-11-01T05:29:07.047Z,7.30
2017-11-01T05:31:34.518Z,7.63
2017-11-01T05:34:02.074Z,10.37
2017-11-01T05:36:29.607Z,6.63
2017-11-01T05:38:57.066Z,10.17
2017-11-01T05:41:24.545Z,8.07
2017-11-01T05:43:52.092Z,18.77
2017-11-01T05:46:19.577Z,8.23
2017-11-01T05:48:47.034Z,6.63
2017-11-01T05:51:14.513Z,8.60
2017-11-01T05:53:41.973Z,8.33
2017-11-01T05:56:09.453Z,7.40
2017-11-01T05:58:36.895Z,6.63
2017-11-01T06:01:04.342Z,9.00
2017-11-01T06:03:31.856Z,7.10
2017-11-01T06:05:59.331Z,16.40
2017-11-01T06:08:26.823Z,7.87
2017-11-01T06:10:54.337Z,13.23
2017-11-01T06:13:21.818Z,8.60
2017-11-01T06:15:49.263Z,8.57
2017-11-01T06:18:16.742Z,11.60
2017-11-01T06:20:44.201Z,10.53
2017-11-01T06:23:11.687Z,8.97
2017-11-01T06:25:39.174Z,9.60
2017-11-01T06:28:07.548Z,6.37
2017-11-01T06:30:35.075Z,19.13
2017-11-01T06:33:02.562Z,9.27
2017-11-01T06:35:30.023Z,8.43
2017-11-01T06:37:57.577Z,10.57
2017-11-01T06:40:25.057Z,8.70
2017-11-01T06:42:52.595Z,9.37
2017-11-01T06:45:20.068Z,8.73
2017-11-01T06:47:47.540Z,9.57
2017-11-01T06:50:15.041Z,22.70
2017-11-01T06:52:42.506Z,6.83
2017-11-01T06:55:09.980Z,9.27
2017-11-01T06:57:37.432Z,9.33
2017-11-01T07:00:11.442Z,12.70
2017-11-01T07:02:43.822Z,13.47
2017-11-01T07:05:13.796Z,10.60
2017-11-01T07:07:41.245Z,9.63
2017-11-01T07:10:08.750Z,17.60
2017-11-01T07:12:36.231Z,10.37
2017-11-01T07:15:03.761Z,12.37
2017-11-01T07:17:31.278Z,15.40
2017-11-01T07:19:58.761Z,20.00
2017-11-01T07:22:26.237Z,11.43
2017-11-01T07:24:53.691Z,12.50
2017-11-01T07:27:21.197Z,16.23
2017-11-01T07:29:48.651Z,9.87
2017-11-01T07:32:16.459Z,14.17
2017-11-01T07:34:44.030Z,12.43
2017-11-01T07:37:11.594Z,10.80
2017-11-01T07:39:39.062Z,10.77
2017-11-01T07:42:06.605Z,14.57
2017-11-01T07:44:34.160Z,12.20
2017-11-01T07:47:02.356Z,14.13
2017-11-01T07:49:29.973Z,13.87
2017-11-01T07:51:57.452Z,14.37
2017-11-01T07:54:25.030Z,16.00
2017-11-01T07:56:52.530Z,12.40
2017-11-01T07:59:20.028Z,11.67
2017-11-01T08:01:47.513Z,12.50
2017-11-01T08:04:15.009Z,23.50
2017-11-01T08:06:42.501Z,27.73
2017-11-01T08:09:10.010Z,14.67
2017-11-01T08:11:37.497Z,21.10
2017-11-01T08:14:04.948Z,19.63
2017-11-01T08:16:32.526Z,12.00
2017-11-01T08:18:59.979Z,11.83
2017-11-01T08:21:27.443Z,9.33
2017-11-01T08:23:54.910Z,13.17
2017-11-01T08:26:22.382Z,15.13
2017-11-01T08:28:49.896Z,22.90
2017-11-01T08:31:17.372Z,14.13
2017-11-01T08:33:44.917Z,16.80
2017-11-01T08:36:12.381Z,13.20
2017-11-01T08:38:39.861Z,11.33
2017-11-01T08:41:07.317Z,14.37
2017-11-01T08:43:34.795Z,13.97
2017-11-01T08:46:02.255Z,9.53
2017-11-01T08:48:29.744Z,14.07
2017-11-01T08:50:57.210Z,18.63
2017-11-01T08:53:24.774Z,9.67
2017-11-01T08:55:52.233Z,8.70
2017-11-01T08:58:19.701Z,14.00
2017-11-01T09:00:47.204Z,9.93
2017-11-01T09:03:14.678Z,10.90
2017-11-01T09:05:42.173Z,13.50
2017-11-01T09:08:09.732Z,8.23
2017-11-01T09:10:37.275Z,12.57
2017-11-01T09:13:04.746Z,11.23
2017-11-01T09:15:32.292Z,20.93
2017-11-01T09:17:59.762Z,17.43
2017-11-01T09:20:27.321Z,19.73
2017-11-01T09:22:54.895Z,14.50
2017-11-01T09:25:22.513Z,9.37
2017-11-01T09:27:49.985Z,11.00
2017-11-01T09:30:17.557Z,7.33
2017-11-01T09:32:45.036Z,11.23
2017-11-01T09:35:12.560Z,14.20
2017-11-01T09:37:40.034Z,8.43
2017-11-01T09:40:07.493Z,8.63
2017-11-01T09:42:35.005Z,5.57
2017-11-01T09:45:02.486Z,21.17
2017-11-01T09:47:30.053Z,7.53
2017-11-01T09:49:57.625Z,8.20
2017-11-01T09:52:25.104Z,9.50
2017-11-01T09:54:52.633Z,9.20
2017-11-01T09:57:20.103Z,9.00
2017-11-01T09:59:47.651Z,6.53
2017-11-01T10:02:15.153Z,8.47
2017-11-01T10:04:42.664Z,6.37
2017-11-01T10:07:10.211Z,5.13
2017-11-01T10:09:37.681Z,4.63
2017-11-01T10:12:05.240Z,9.83
2017-11-01T10:14:32.709Z,7.67
2017-11-01T10:17:00.245Z,6.07
2017-11-01T10:19:27.808Z,10.50
2017-11-01T10:21:55.396Z,3.60
2017-11-01T10:24:22.864Z,4.40
2017-11-01T10:26:50.345Z,4.27
2017-11-01T10:29:17.825Z,4.27
2017-11-01T10:31:45.294Z,3.30
2017-11-01T10:34:12.896Z,9.23
2017-11-01T10:36:40.406Z,5.60
2017-11-01T10:39:07.885Z,4.17
2017-11-01T10:41:35.363Z,8.00
2017-11-01T10:44:02.861Z,6.23
2017-11-01T10:46:30.345Z,6.47
2017-11-01T10:48:57.897Z,3.77
2017-11-01T10:51:25.361Z,8.00
2017-11-01T10:53:52.837Z,5.50
2017-11-01T10:56:20.362Z,5.63
2017-11-01T10:58:47.926Z,2.83
2017-11-01T11:01:15.494Z,2.47
2017-11-01T11:03:43.045Z,5.03
2017-11-01T11:06:10.605Z,3.80
2017-11-01T11:08:38.274Z,5.73
2017-11-01T11:11:05.830Z,2.73
2017-11-01T11:13:33.381Z,2.37
2017-11-01T11:16:00.845Z,2.03
2017-11-01T11:18:28.308Z,2.57
2017-11-01T11:20:55.777Z,5.93
2017-11-01T11:23:23.309Z,5.40
2017-11-01T11:25:50.779Z,3.40
2017-11-01T11:28:18.320Z,3.90
2017-11-01T11:30:45.788Z,2.50
2017-11-01T11:33:13.269Z,3.00
2017-11-01T11:35:40.762Z,3.70
2017-11-01T11:38:08.225Z,3.53
2017-11-01T11:40:35.761Z,2.20
2017-11-01T11:43:03.228Z,5.53
2017-11-01T11:45:30.706Z,2.43
2017-11-01T11:47:58.199Z,4.90
2017-11-01T11:50:25.685Z,3.43
2017-11-01T11:52:53.157Z,2.30
2017-11-01T11:55:20.637Z,4.87
2017-11-01T11:57:48.099Z,5.93
2017-11-01T12:00:15.580Z,2.53
2017-11-01T12:02:43.041Z,4.20
2017-11-01T12:05:10.511Z,3.57
2017-11-01T12:07:38.027Z,4.87
2017-11-01T12:10:05.511Z,3.00
2017-11-01T12:12:33.057Z,8.10
2017-11-01T12:15:00.528Z,7.10
2017-11-01T12:17:28.069Z,2.63
2017-11-01T12:19:55.635Z,3.10
2017-11-01T12:22:23.094Z,6.00
2017-11-01T12:24:50.564Z,4.07
2017-11-01T12:27:18.081Z,1.97
2017-11-01T12:29:45.531Z,2.40
2017-11-01T12:32:13.018Z,2.10
2017-11-01T12:34:40.586Z,3.37
2017-11-01T12:37:08.066Z,6.80
2017-11-01T12:39:35.589Z,4.43
2017-11-01T12:42:03.064Z,3.60
2017-11-01T12:44:30.585Z,2.90
2017-11-01T12:46:58.095Z,2.30
2017-11-01T12:49:25.561Z,3.90
2017-11-01T12:51:53.049Z,3.50
2017-11-01T12:54:20.533Z,2.47
2017-11-01T12:56:48.017Z,2.33
2017-11-01T12:59:15.467Z,2.10
2017-11-01T13:01:42.931Z,4.87
2017-11-01T13:04:10.388Z,2.53
2017-11-01T13:06:37.865Z,4.00
2017-11-01T13:09:05.316Z,8.73
2017-11-01T13:11:32.858Z,18.20
2017-11-01T13:14:00.394Z,11.87
2017-11-01T13:16:27.878Z,3.90
2017-11-01T13:18:55.379Z,3.80
2017-11-01T13:21:22.828Z,6.67
2017-11-01T13:23:50.301Z,3.07
2017-11-01T13:26:17.778Z,6.60
2017-11-01T13:28:45.257Z,5.13
2017-11-01T13:31:12.721Z,5.33
2017-11-01T13:33:40.226Z,2.47
2017-11-01T13:36:07.697Z,5.40
2017-11-01T13:38:35.192Z,4.07
2017-11-01T13:41:02.649Z,2.97
2017-11-01T13:43:30.115Z,8.57
2017-11-01T13:45:57.600Z,3.13
2017-11-01T13:48:25.062Z,6.10
2017-11-01T13:50:52.650Z,5.53
2017-11-01T13:53:20.200Z,4.57
2017-11-01T13:55:47.676Z,2.93
2017-11-01T13:58:15.218Z,6.00
2017-11-01T14:00:42.698Z,3.70
2017-11-01T14:03:10.155Z,9.00
2017-11-01T14:05:37.628Z,2.63
2017-11-01T14:08:05.090Z,3.10
2017-11-01T14:10:32.573Z,3.07
2017-11-01T14:13:00.033Z,3.10
2017-11-01T14:15:27.626Z,4.60
2017-11-01T14:17:55.080Z,4.03
2017-11-01T14:20:22.644Z,5.33
2017-11-01T14:22:50.222Z,7.20
2017-11-01T14:25:17.707Z,4.43
2017-11-01T14:27:45.170Z,7.47
2017-11-01T14:30:12.649Z,2.90
2017-11-01T14:32:40.153Z,7.47
2017-11-01T14:35:07.711Z,8.93
2017-11-01T14:37:35.801Z,8.47
2017-11-01T14:40:04.116Z,9.03
2017-11-01T14:42:31.837Z,3.30
2017-11-01T14:44:59.359Z,3.73
2017-11-01T14:47:26.862Z,10.73
2017-11-01T14:49:54.370Z,5.37
2017-11-01T14:52:21.921Z,6.73
2017-11-01T14:54:49.388Z,5.53
2017-11-01T14:57:16.942Z,3.63
2017-11-01T14:59:44.405Z,6.07
2017-11-01T15:02:11.901Z,6.33
2017-11-01T15:04:39.366Z,10.17
2017-11-01T15:07:06.816Z,4.97
2017-11-01T15:09:34.364Z,8.13
2017-11-01T15:12:01.838Z,11.90
2017-11-01T15:14:29.338Z,4.40
2017-11-01T15:16:56.901Z,7.40
2017-11-01T15:19:24.386Z,5.30
2017-11-01T15:21:51.905Z,2.60
2017-11-01T15:24:19.377Z,4.13
2017-11-01T15:26:46.828Z,5.90
2017-11-01T15:29:14.382Z,9.27
2017-11-01T15:31:41.849Z,13.10
2017-11-01T15:34:09.357Z,4.57
2017-11-01T15:36:36.819Z,5.57
2017-11-01T15:39:04.307Z,2.53
2017-11-01T15:41:31.778Z,4.13
2017-11-01T15:43:59.282Z,5.07
2017-11-01T15:46:26.745Z,3.67
2017-11-01T15:48:54.230Z,3.00
2017-11-01T15:51:21.720Z,3.70
2017-11-01T15:53:49.186Z,5.63
2017-11-01T15:56:16.660Z,3.40
2017-11-01T15:58:44.129Z,3.43
2017-11-01T16:01:11.611Z,5.17
2017-11-01T16:03:39.085Z,4.00
2017-11-01T16:06:06.686Z,2.60
2017-11-01T16:08:34.158Z,13.03
2017-11-01T16:11:01.641Z,2.63
2017-11-01T16:13:29.113Z,3.67
2017-11-01T16:15:56.682Z,5.10
2017-11-01T16:18:24.172Z,6.03
2017-11-01T16:20:51.684Z,5.67
2017-11-01T16:23:19.173Z,6.60
2017-11-01T16:25:46.694Z,9.50
2017-11-01T16:28:14.136Z,8.03
2017-11-01T16:30:41.583Z,4.67
2017-11-01T16:33:09.180Z,10.97
2017-11-01T16:35:36.737Z,4.80
2017-11-01T16:38:04.217Z,6.53
2017-11-01T16:40:31.697Z,13.70
2017-11-01T16:42:59.188Z,5.87
2017-11-01T16:45:26.654Z,4.90
2017-11-01T16:47:54.229Z,5.10
2017-11-01T16:50:21.782Z,7.27
2017-11-01T16:52:49.266Z,5.47
2017-11-01T16:55:16.729Z,4.73
2017-11-01T16:57:44.213Z,10.83
2017-11-01T17:00:11.702Z,10.97
2017-11-01T17:02:39.185Z,6.47
2017-11-01T17:05:06.641Z,23.10
2017-11-01T17:07:34.141Z,5.87
2017-11-01T17:10:01.637Z,7.73
2017-11-01T17:12:30.172Z,5.47
2017-11-01T17:14:57.893Z,6.43
2017-11-01T17:17:26.230Z,10.83
2017-11-01T17:19:55.162Z,9.50
2017-11-01T17:22:22.709Z,5.60
2017-11-01T17:24:50.267Z,11.67
2017-11-01T17:27:17.825Z,6.63
2017-11-01T17:29:45.333Z,17.90
2017-11-01T17:32:12.846Z,7.00
2017-11-01T17:34:40.325Z,6.00
2017-11-01T17:37:07.844Z,6.20
2017-11-01T17:39:35.312Z,6.27
2017-11-01T17:42:02.862Z,5.30
2017-11-01T17:44:31.946Z,10.70
2017-11-01T17:46:59.582Z,13.53
2017-11-01T17:49:27.087Z,22.83
2017-11-01T17:51:54.578Z,9.93
2017-11-01T17:54:22.049Z,13.40
2017-11-01T17:56:49.542Z,10.63
2017-11-01T17:59:17.013Z,46.37
2017-11-01T18:01:44.497Z,30.20
2017-11-01T18:04:11.972Z,22.03
2017-11-01T18:06:39.427Z,20.80
2017-11-01T18:09:06.945Z,14.67
2017-11-01T18:11:34.426Z,17.50
2017-11-01T18:14:01.963Z,21.33
2017-11-01T18:16:29.442Z,12.07
2017-11-01T18:18:56.969Z,13.93
2017-11-01T18:21:24.418Z,5.93
2017-11-01T18:23:51.875Z,8.40
2017-11-01T18:26:19.331Z,6.03
2017-11-01T18:28:46.820Z,5.60
2017-11-01T18:31:14.280Z,7.53
2017-11-01T18:33:41.753Z,13.70
2017-11-01T18:36:10.204Z,7.17
2017-11-01T18:38:37.713Z,10.90
2017-11-01T18:41:05.221Z,18.30
2017-11-01T18:43:32.724Z,49.10
2017-11-01T18:46:00.194Z,39.20
2017-11-01T18:48:27.709Z,32.90
2017-11-01T18:50:55.175Z,27.00
2017-11-01T18:53:22.674Z,33.03
2017-11-01T18:55:50.143Z,28.70
2017-11-01T18:58:17.610Z,29.93
2017-11-01T19:00:45.165Z,43.07
2017-11-01T19:03:12.721Z,33.67
2017-11-01T19:05:40.240Z,15.80
2017-11-01T19:08:07.757Z,13.10
2017-11-01T19:10:35.239Z,18.63
2017-11-01T19:13:02.695Z,13.67
2017-11-01T19:15:30.205Z,17.60
2017-11-01T19:17:57.661Z,14.23
2017-11-01T19:20:25.149Z,18.57
2017-11-01T19:22:52.600Z,9.70
2017-11-01T19:25:20.141Z,12.60
2017-11-01T19:27:47.598Z,9.50
2017-11-01T19:30:15.095Z,12.93
2017-11-01T19:32:42.551Z,19.63
2017-11-01T19:35:10.074Z,22.37
2017-11-01T19:37:37.620Z,12.77
2017-11-01T19:40:05.077Z,20.50
2017-11-01T19:42:32.640Z,27.13
2017-11-01T19:45:00.124Z,30.30
2017-11-01T19:47:27.603Z,31.23
2017-11-01T19:49:55.065Z,21.20
2017-11-01T19:52:22.613Z,30.40
2017-11-01T19:54:50.078Z,28.73
2017-11-01T19:57:17.581Z,26.43
2017-11-01T19:59:45.192Z,30.70
2017-11-01T20:02:12.698Z,23.40
2017-11-01T20:04:40.177Z,22.80
2017-11-01T20:07:07.685Z,31.03
2017-11-01T20:09:35.150Z,20.20
2017-11-01T20:12:02.650Z,26.00
2017-11-01T20:14:30.130Z,21.87
2017-11-01T20:19:31.562Z,14.37
2017-11-01T20:21:59.103Z,21.83
2017-11-01T20:24:26.676Z,31.67
2017-11-01T20:26:54.239Z,12.73
2017-11-01T20:29:21.738Z,21.63
2017-11-01T20:31:49.196Z,14.13
2017-11-01T20:34:16.698Z,17.03
2017-11-01T20:36:44.364Z,8.70
2017-11-01T20:39:11.850Z,12.17
2017-11-01T20:41:39.321Z,12.70
2017-11-01T20:44:06.814Z,12.73
2017-11-01T20:46:34.318Z,14.60
2017-11-01T20:49:01.854Z,15.37
2017-11-01T20:51:29.318Z,13.60
2017-11-01T20:53:56.814Z,14.83
2017-11-01T20:56:24.322Z,9.60
2017-11-01T20:58:51.890Z,12.30
2017-11-01T21:01:19.367Z,8.63
2017-11-01T21:03:46.821Z,8.17
2017-11-01T21:06:14.335Z,11.20
2017-11-01T21:08:41.780Z,10.37
2017-11-01T21:11:09.257Z,11.70
2017-11-01T21:13:36.703Z,7.73
2017-11-01T21:16:04.168Z,13.53
2017-11-01T21:18:31.621Z,7.77
2017-11-01T21:20:59.087Z,7.63
2017-11-01T21:23:26.565Z,7.87
2017-11-01T21:25:54.113Z,8.50
2017-11-01T21:28:21.636Z,10.60
2017-11-01T21:30:49.120Z,7.13
2017-11-01T21:33:16.564Z,7.47
2017-11-01T21:35:44.063Z,12.53
2017-11-01T21:38:11.523Z,10.90
2017-11-01T21:40:39.020Z,7.13
2017-11-01T21:43:06.475Z,8.57
2017-11-01T21:45:33.960Z,11.33
2017-11-01T21:48:01.523Z,13.17
2017-11-01T21:50:28.982Z,9.63
2017-11-01T21:52:56.451Z,11.57
2017-11-01T21:55:23.953Z,11.80
2017-11-01T21:57:51.462Z,12.40
2017-11-01T22:00:18.928Z,15.70
2017-11-01T22:02:46.426Z,8.80
2017-11-01T22:05:13.885Z,12.97
2017-11-01T22:07:41.368Z,11.10
2017-11-01T22:10:08.816Z,15.90
2017-11-01T22:12:36.317Z,9.83
2017-11-01T22:15:03.802Z,12.87
2017-11-01T22:17:31.406Z,23.80
2017-11-01T22:19:58.892Z,13.60
2017-11-01T22:22:26.353Z,11.63
2017-11-01T22:24:53.926Z,10.97
2017-11-01T22:27:21.398Z,10.33
2017-11-01T22:29:48.881Z,11.53
2017-11-01T22:32:16.449Z,9.57
2017-11-01T22:34:44.022Z,8.67
2017-11-01T22:37:11.562Z,8.67
2017-11-01T22:39:39.065Z,7.70
2017-11-01T22:42:06.546Z,7.63
2017-11-01T22:44:34.041Z,11.43
2017-11-01T22:47:01.501Z,11.47
2017-11-01T22:49:29.065Z,9.13
2017-11-01T22:51:56.537Z,7.70
2017-11-01T22:54:24.002Z,7.73
2017-11-01T22:56:51.448Z,8.30
2017-11-01T22:59:18.918Z,7.33
2017-11-01T23:01:46.373Z,8.50
2017-11-01T23:04:13.898Z,12.90
2017-11-01T23:06:41.451Z,9.27
2017-11-01T23:09:09.056Z,8.10
2017-11-01T23:11:36.518Z,7.20
2017-11-01T23:14:03.991Z,14.67
2017-11-01T23:16:31.461Z,7.83
2017-11-01T23:18:58.925Z,15.60
2017-11-01T23:21:26.415Z,10.33
2017-11-01T23:23:53.859Z,10.13
2017-11-01T23:26:21.421Z,7.30
2017-11-01T23:28:48.897Z,10.70
2017-11-01T23:31:16.393Z,10.30
2017-11-01T23:33:43.857Z,8.27
2017-11-01T23:36:11.342Z,11.57
2017-11-01T23:38:38.896Z,9.20
2017-11-01T23:41:06.461Z,10.43
2017-11-01T23:43:33.926Z,15.40
2017-11-01T23:46:01.406Z,10.73
2017-11-01T23:48:28.928Z,7.80
2017-11-01T23:50:56.415Z,8.57
2017-11-01T23:53:23.956Z,9.10
2017-11-01T23:55:51.422Z,7.90
2017-11-01T23:58:18.969Z,7.90
